Breckenridge, TX

8:41 AM CST on February 23, 2017 (GMT -0600)
Stephens County

Weather History for KBKD - January, 2014

Change the Weather History Date:

Sunday, January 12, 2014

  Actual Average (KMWL) Record (KMWL)
Temperature  
Mean Temperature 64 °F -  
Max Temperature 79 °F 55 °F 82 °F (2000)
Min Temperature 50 °F 32 °F 19 °F (1997)
Growing Degree Days 14 (Base 50)    
Moisture  
Dew Point 31 °F    
Average Humidity 31    
Maximum Humidity 50    
Minimum Humidity 15    
Precipitation  
Precipitation 0.00 in - - ()
Sea Level Pressure  
Sea Level Pressure 29.86 in    
Wind  
Wind Speed 18 mph (SSW)    
Max Wind Speed 31 mph    
Max Gust Speed 43 mph    
Visibility 10 miles    
Events      
Averages and records for this station are not official NWS values.
T = Trace of Precipitation, MM = Missing Value Source: NWS Daily Summary

Daily Weather History Graph

Daily Weather History Graph

Search for Another Location

Airport or City:

Trip Planner

Search our weather history database for the weather conditions in past years. The results will help you decide how hot, cold, wet, or windy it might be!

Date:

Astronomy

Jan. 12, 2014 Rise Set
Actual Time 7:38 AM CST 5:49 PM CST
Civil Twilight 7:11 AM CST 6:16 PM CST
Nautical Twilight 6:41 AM CST 6:46 PM CST
Astronomical Twilight 6:11 AM CST 7:16 PM CST
Moon 3:17 PM CST (1/12) 4:39 AM CST (1/12)
Length of Visible Light 11h 04m
Length of Day
10h 11m
Waxing Gibbous, 90% of the Moon is Illuminated
Jan 12
Waxing Gibbous
Jan 15
Full
Jan 23
Last Quarter
Jan 30
New
Feb 6
First Quarter

Hourly Weather History & Observations

Time (CST) Temp. Dew Point Humidity Pressure Visibility Wind Dir Wind Speed Gust Speed Precip Events Conditions
12:15 AM 54.7 °F 21.9 °F 28% 30.02 in 10.0 mi South 13.8 mph - N/A   Clear
12:35 AM 55.6 °F 22.1 °F 27% 30.01 in 10.0 mi South 13.8 mph - N/A   Clear
12:55 AM 55.0 °F 22.5 °F 28% 30.00 in 10.0 mi South 15.0 mph - N/A   Clear
1:15 AM 54.1 °F 22.8 °F 30% 29.99 in 10.0 mi South 12.7 mph - N/A   Clear
1:35 AM 53.6 °F 23.4 °F 31% 29.99 in 10.0 mi South 13.8 mph 20.7 mph N/A   Clear
1:55 AM 54.5 °F 23.4 °F 30% 29.98 in 10.0 mi South 13.8 mph 20.7 mph N/A   Clear
2:15 AM 55.6 °F 23.0 °F 28% 29.98 in 10.0 mi SSW 17.3 mph 23.0 mph N/A   Clear
2:35 AM 56.5 °F 23.4 °F 28% 29.98 in 10.0 mi SSW 16.1 mph 23.0 mph N/A   Clear
2:55 AM 56.8 °F 23.9 °F 28% 29.98 in 10.0 mi SSW 18.4 mph 26.5 mph N/A   Clear
3:15 AM 55.6 °F 24.3 °F 30% 29.97 in 10.0 mi SSW 19.6 mph 25.3 mph N/A   Clear
3:35 AM 54.5 °F 24.3 °F 31% 29.96 in 10.0 mi South 17.3 mph 23.0 mph N/A   Clear
3:55 AM 53.1 °F 24.6 °F 33% 29.96 in 10.0 mi South 17.3 mph 23.0 mph N/A   Clear
4:15 AM 52.5 °F 24.8 °F 34% 29.95 in 10.0 mi South 16.1 mph 23.0 mph N/A   Clear
4:35 AM 52.7 °F 25.2 °F 34% 29.94 in 10.0 mi SSW 16.1 mph 20.7 mph N/A   Clear
4:55 AM 54.1 °F 25.3 °F 33% 29.93 in 10.0 mi South 16.1 mph 24.2 mph N/A   Clear
5:15 AM 54.5 °F 25.5 °F 33% 29.93 in 10.0 mi SSW 13.8 mph 24.2 mph N/A   Clear
5:35 AM 53.8 °F 25.3 °F 33% 29.92 in 10.0 mi SSW 17.3 mph 25.3 mph N/A   Clear
5:55 AM 53.6 °F 25.2 °F 33% 29.92 in 10.0 mi SSW 18.4 mph 24.2 mph N/A   Clear
6:15 AM 52.0 °F 25.5 °F 36% 29.92 in 10.0 mi SSW 17.3 mph 23.0 mph N/A   Clear
6:35 AM 50.9 °F 26.1 °F 38% 29.92 in 10.0 mi South 15.0 mph 21.9 mph N/A   Clear
6:55 AM 52.3 °F 26.1 °F 36% 29.92 in 10.0 mi SSW 17.3 mph 24.2 mph N/A   Clear
7:15 AM 52.7 °F 26.6 °F 36% 29.92 in 10.0 mi SSW 17.3 mph 21.9 mph N/A   Clear
7:35 AM 53.6 °F 27.3 °F 36% 29.93 in 10.0 mi South 16.1 mph 23.0 mph N/A   Clear
7:55 AM 54.3 °F 28.0 °F 36% 29.93 in 10.0 mi South 18.4 mph 24.2 mph N/A   Clear
8:15 AM 55.0 °F 28.2 °F 36% 29.93 in 10.0 mi SSW 20.7 mph 26.5 mph N/A   Clear
8:35 AM 55.9 °F 28.4 °F 35% 29.93 in 10.0 mi South 20.7 mph 29.9 mph N/A   Clear
8:55 AM 57.2 °F 28.6 °F 34% 29.93 in 10.0 mi SSW 21.9 mph 28.8 mph N/A   Clear
9:15 AM 59.0 °F 28.9 °F 32% 29.94 in 10.0 mi SSW 23.0 mph 32.2 mph N/A   Clear
9:35 AM 60.4 °F 28.8 °F 30% 29.94 in 10.0 mi SSW 24.2 mph 29.9 mph N/A   Clear
9:55 AM 61.3 °F 28.4 °F 29% 29.93 in 10.0 mi SSW 21.9 mph 32.2 mph N/A   Clear
10:15 AM 63.1 °F 28.2 °F 27% 29.93 in 10.0 mi SSW 23.0 mph 31.1 mph N/A   Clear
10:35 AM 65.5 °F 28.0 °F 24% 29.92 in 10.0 mi SSW 24.2 mph 33.4 mph N/A   Clear
10:55 AM 67.1 °F 27.5 °F 23% 29.91 in 10.0 mi SSW 28.8 mph 35.7 mph N/A   Clear
11:15 AM 68.7 °F 27.5 °F 21% 29.89 in 10.0 mi SSW 27.6 mph 35.7 mph N/A   Clear
11:35 AM 70.2 °F 27.3 °F 20% 29.88 in 10.0 mi SSW 28.8 mph 38.0 mph N/A   Clear
11:55 AM 71.2 °F 27.5 °F 20% 29.87 in 10.0 mi SW 25.3 mph 39.1 mph N/A   Clear
12:15 PM 72.9 °F 27.9 °F 19% 29.86 in 10.0 mi SSW 31.1 mph 41.4 mph N/A   Clear
12:35 PM 74.5 °F 28.6 °F 18% 29.83 in 10.0 mi SSW 23.0 mph 34.5 mph N/A   Clear
12:55 PM 76.3 °F 29.1 °F 18% 29.81 in 10.0 mi SSW 24.2 mph 32.2 mph N/A   Clear
1:15 PM 77.5 °F 28.4 °F 16% 29.80 in 10.0 mi SW 27.6 mph 36.8 mph N/A   Clear
1:35 PM 77.4 °F 28.4 °F 17% 29.79 in 10.0 mi SSW 26.5 mph 36.8 mph N/A   Clear
1:55 PM 75.2 °F 28.8 °F 18% 29.77 in 10.0 mi SSW 21.9 mph 32.2 mph N/A   Clear
2:15 PM 78.8 °F 28.6 °F 16% 29.75 in 10.0 mi SSW 19.6 mph 33.4 mph N/A   Clear
2:35 PM 79.9 °F 28.4 °F 15% 29.76 in 10.0 mi SSW 31.1 mph 41.4 mph N/A   Clear
2:55 PM 76.1 °F 30.2 °F 19% 29.76 in 10.0 mi SW 25.3 mph 36.8 mph N/A   Clear
3:15 PM 77.7 °F 31.8 °F 19% 29.75 in 10.0 mi SSW 21.9 mph 35.7 mph N/A   Clear
3:35 PM 77.0 °F 32.2 °F 19% 29.75 in 10.0 mi SSW 29.9 mph 42.6 mph N/A   Clear
3:55 PM 76.5 °F 34.5 °F 22% 29.75 in 10.0 mi SSW 20.7 mph 27.6 mph N/A   Clear
4:15 PM 77.2 °F 35.8 °F 22% 29.75 in 10.0 mi SSW 20.7 mph 27.6 mph N/A   Clear
4:35 PM 76.1 °F 35.6 °F 23% 29.76 in 10.0 mi SSW 25.3 mph 33.4 mph N/A   Clear
4:55 PM 75.2 °F 36.0 °F 24% 29.76 in 10.0 mi SSW 21.9 mph 29.9 mph N/A   Clear
5:15 PM 73.6 °F 36.9 °F 26% 29.75 in 10.0 mi SSW 18.4 mph 29.9 mph N/A   Clear
5:35 PM 72.3 °F 37.8 °F 28% 29.75 in 10.0 mi SSW 16.1 mph 29.9 mph N/A   Clear
5:55 PM 71.2 °F 38.8 °F 31% 29.75 in 10.0 mi SSW 15.0 mph 24.2 mph N/A   Clear
6:15 PM 70.0 °F 40.5 °F 34% 29.75 in 10.0 mi SSW 15.0 mph 20.7 mph N/A   Clear
6:35 PM 69.8 °F 41.5 °F 36% 29.75 in 10.0 mi SSW 16.1 mph 23.0 mph N/A   Clear
6:55 PM 69.1 °F 41.9 °F 37% 29.75 in 10.0 mi SSW 13.8 mph 20.7 mph N/A   Clear
7:15 PM 68.9 °F 42.1 °F 38% 29.76 in 10.0 mi SSW 18.4 mph 24.2 mph N/A   Clear
7:35 PM 68.5 °F 42.3 °F 38% 29.75 in 10.0 mi SSW 18.4 mph 25.3 mph N/A   Clear
7:55 PM 68.2 °F 41.9 °F 38% 29.76 in 10.0 mi SSW 17.3 mph 23.0 mph N/A   Clear
8:15 PM 68.0 °F 41.9 °F 39% 29.76 in 10.0 mi SSW 17.3 mph - N/A   Clear
8:35 PM 66.7 °F 42.1 °F 41% 29.76 in 10.0 mi SSW 18.4 mph 24.2 mph N/A   Clear
8:55 PM 65.8 °F 40.3 °F 39% 29.76 in 10.0 mi SSW 19.6 mph 27.6 mph N/A   Clear
9:15 PM 65.3 °F 37.9 °F 36% 29.77 in 10.0 mi SSW 18.4 mph 24.2 mph N/A   Clear
9:35 PM 64.4 °F 37.8 °F 37% 29.77 in 10.0 mi SSW 18.4 mph 24.2 mph N/A   Clear
9:55 PM 64.2 °F 38.5 °F 39% 29.77 in 10.0 mi SSW 16.1 mph 25.3 mph N/A   Clear
10:15 PM 63.7 °F 39.9 °F 42% 29.77 in 10.0 mi SSW 19.6 mph 25.3 mph N/A   Clear
10:35 PM 64.0 °F 41.0 °F 43% 29.77 in 10.0 mi SSW 17.3 mph 24.2 mph N/A   Clear
10:55 PM 64.0 °F 41.9 °F 44% 29.78 in 10.0 mi SSW 18.4 mph 28.8 mph N/A   Clear
11:15 PM 63.7 °F 42.3 °F 46% 29.79 in 10.0 mi SW 19.6 mph 27.6 mph N/A   Clear
11:35 PM 63.0 °F 42.8 °F 48% 29.79 in 10.0 mi SW 18.4 mph 27.6 mph N/A   Clear
11:55 PM 62.1 °F 43.0 °F 50% 29.79 in 10.0 mi SW 16.1 mph - N/A   Clear